Time;durP1;ratioP1;P1;durP2;ratioP2;P2;SDS_P1;SDS_P2;PMS_P1;PMS_P2;Temp;Humidity;BMP_temperature;BMP_pressure;BME280_temperature;BME280_humidity;BME280_pressure;Samples;Min_cycle;Max_cycle;Signal;HPM_P1;HPM_P2
2021/10/31 00:00:48;;;;;;;21.23;10.03;;;;;;;-145.18;100.00;60484.78;5068856;28;20101;-70
2021/10/31 00:03:16;;;;;;;21.53;9.77;;;;;;;-145.18;100.00;60484.78;5074373;28;20077;-70
2021/10/31 00:05:42;;;;;;;22.00;9.23;;;;;;;-145.18;100.00;60484.78;5075777;28;20503;-70
2021/10/31 00:08:09;;;;;;;20.13;10.13;;;;;;;-145.18;100.00;60484.78;5065921;28;20048;-70
2021/10/31 00:10:35;;;;;;;25.70;10.33;;;;;;;-145.18;100.00;60484.78;5062773;28;20184;-70
2021/10/31 00:13:00;;;;;;;22.13;9.67;;;;;;;-145.18;100.00;60484.78;5076379;28;20027;-70
2021/10/31 00:15:26;;;;;;;18.97;9.80;;;;;;;-145.18;100.00;60484.78;5063850;28;20208;-70
2021/10/31 00:17:51;;;;;;;21.90;10.07;;;;;;;-145.18;100.00;60484.78;5069005;28;20434;-70
2021/10/31 00:20:17;;;;;;;21.70;9.67;;;;;;;-145.18;100.00;60484.78;5062788;28;20059;-70
2021/10/31 00:22:44;;;;;;;20.73;10.13;;;;;;;-145.18;100.00;60484.78;5071432;28;20420;-70
2021/10/31 00:25:10;;;;;;;20.97;9.60;;;;;;;-145.18;100.00;60484.78;5073234;28;20118;-70
2021/10/31 00:27:36;;;;;;;23.87;9.87;;;;;;;-145.18;100.00;60484.78;5072819;28;20027;-70
2021/10/31 00:30:03;;;;;;;24.20;10.80;;;;;;;-145.18;100.00;60484.78;5066373;28;20040;-70
2021/10/31 00:32:28;;;;;;;23.73;11.00;;;;;;;-145.18;100.00;60484.78;5076500;28;20028;-70
2021/10/31 00:34:55;;;;;;;22.17;10.47;;;;;;;-145.18;100.00;60484.78;5072305;28;20063;-70
2021/10/31 00:37:20;;;;;;;20.33;10.13;;;;;;;-145.18;100.00;60484.78;5068427;28;20199;-70
2021/10/31 00:39:46;;;;;;;20.83;10.03;;;;;;;-145.18;100.00;60484.78;5070437;28;20029;-70
2021/10/31 00:42:12;;;;;;;19.80;9.37;;;;;;;-145.18;100.00;60484.78;5064840;28;20063;-70
2021/10/31 00:44:37;;;;;;;22.03;11.87;;;;;;;-145.18;100.00;60484.78;5071209;28;20115;-70
2021/10/31 00:47:03;;;;;;;21.33;10.37;;;;;;;-145.18;100.00;60484.78;5075353;28;20111;-70
2021/10/31 00:49:29;;;;;;;22.17;10.00;;;;;;;-145.18;100.00;60484.78;5074101;28;20886;-70
2021/10/31 00:51:55;;;;;;;20.27;9.70;;;;;;;-145.18;100.00;60484.78;5073940;28;20028;-70
2021/10/31 00:54:21;;;;;;;21.00;9.97;;;;;;;-145.18;100.00;60484.78;5067075;28;20024;-70
2021/10/31 00:56:47;;;;;;;26.77;12.13;;;;;;;-145.18;100.00;60484.78;5075411;28;20500;-70
2021/10/31 00:59:12;;;;;;;22.97;11.23;;;;;;;-145.18;100.00;60484.78;5065366;28;20032;-70
2021/10/31 01:01:38;;;;;;;21.00;10.33;;;;;;;-145.18;100.00;60484.78;5066635;28;20043;-70
2021/10/31 01:04:04;;;;;;;20.23;9.80;;;;;;;-145.18;100.00;60484.78;5075946;28;20417;-70
2021/10/31 01:06:51;;;;;;;23.43;10.67;;;;;;;-145.18;100.00;60484.78;5076388;28;20357;-70
2021/10/31 01:09:54;;;;;;;21.07;10.60;;;;;;;-145.18;100.00;60484.78;5068342;28;20074;-70
2021/10/31 01:12:33;;;;;;;21.90;9.53;;;;;;;-145.18;100.00;60484.78;5071317;28;20111;-70
2021/10/31 01:15:26;;;;;;;25.23;11.10;;;;;;;-145.18;100.00;60484.78;5068705;28;20039;-70
2021/10/31 01:18:17;;;;;;;22.70;10.53;;;;;;;-145.18;100.00;60484.78;5070129;28;20447;-70
2021/10/31 01:21:10;;;;;;;22.80;10.10;;;;;;;-145.18;100.00;60484.78;5068495;28;20039;-70
2021/10/31 01:24:01;;;;;;;20.33;9.50;;;;;;;-145.18;100.00;60484.78;5069635;28;20197;-70
2021/10/31 01:27:16;;;;;;;26.47;11.10;;;;;;;-145.18;100.00;60484.78;5075100;28;20024;-70
2021/10/31 01:30:03;;;;;;;23.63;9.97;;;;;;;-145.18;100.00;60484.78;5015385;28;20062;-70
2021/10/31 01:32:50;;;;;;;31.40;10.93;;;;;;;-145.18;100.00;60484.78;5071852;28;20583;-70
2021/10/31 01:35:55;;;;;;;25.63;10.77;;;;;;;-145.18;100.00;60484.78;5068689;28;20059;-69
2021/10/31 01:38:55;;;;;;;22.93;10.87;;;;;;;-145.18;100.00;60484.78;4974264;28;20222;-70
2021/10/31 01:41:48;;;;;;;22.43;9.97;;;;;;;-145.18;100.00;60484.78;4956011;28;20054;-70
2021/10/31 01:44:38;;;;;;;22.97;11.07;;;;;;;-145.18;100.00;60484.78;4974794;28;20181;-70
2021/10/31 01:48:14;;;;;;;27.37;10.57;;;;;;;-145.18;100.00;60484.78;4971187;28;20549;-70
2021/10/31 01:50:43;;;;;;;25.73;10.37;;;;;;;-145.18;100.00;60484.78;4866139;29;20049;-70
2021/10/31 01:53:18;;;;;;;26.13;11.27;;;;;;;-145.18;100.00;60484.78;4861383;29;20075;-70
2021/10/31 01:55:54;;;;;;;27.03;11.80;;;;;;;-145.18;100.00;60484.78;4859394;29;20390;-70
2021/10/31 01:58:22;;;;;;;29.70;12.43;;;;;;;-145.18;100.00;60484.78;4865559;29;20037;-70
2021/10/31 02:00:49;;;;;;;28.40;11.47;;;;;;;-145.18;100.00;60484.78;4866817;29;20052;-70
2021/10/31 02:03:20;;;;;;;27.17;12.13;;;;;;;-145.18;100.00;60484.78;4865292;29;20037;-70
2021/10/31 02:05:49;;;;;;;28.10;12.20;;;;;;;-145.18;100.00;60484.78;4864521;29;20578;-70
2021/10/31 02:08:17;;;;;;;24.70;11.63;;;;;;;-145.18;100.00;60484.78;4865564;29;20048;-70
2021/10/31 02:10:46;;;;;;;28.30;10.87;;;;;;;-145.18;100.00;60484.78;4865138;29;20048;-70
2021/10/31 02:13:14;;;;;;;29.57;11.40;;;;;;;-145.18;100.00;60484.78;4861888;29;20041;-70
2021/10/31 02:15:43;;;;;;;25.17;11.20;;;;;;;-145.18;100.00;60484.78;4920493;28;20554;-72
2021/10/31 02:18:12;;;;;;;26.63;11.43;;;;;;;-145.18;100.00;60484.78;4940218;28;20039;-72
2021/10/31 02:20:42;;;;;;;24.60;10.37;;;;;;;-145.18;100.00;60484.78;4968133;28;20478;-72
2021/10/31 02:23:09;;;;;;;28.83;11.67;;;;;;;-145.18;100.00;60484.78;5013348;28;20657;-72
2021/10/31 02:25:35;;;;;;;27.33;11.73;;;;;;;-145.18;100.00;60484.78;5028397;28;20036;-72
2021/10/31 02:28:01;;;;;;;26.00;10.63;;;;;;;-145.18;100.00;60484.78;5075932;28;20055;-72
2021/10/31 02:30:27;;;;;;;26.97;10.90;;;;;;;-145.18;100.00;60484.78;5073389;28;20030;-72
2021/10/31 02:32:52;;;;;;;34.57;12.57;;;;;;;-145.18;100.00;60484.78;5076923;28;20019;-70
2021/10/31 02:35:19;;;;;;;27.37;11.70;;;;;;;-145.18;100.00;60484.78;5072254;28;20469;-70
2021/10/31 02:37:45;;;;;;;27.80;11.27;;;;;;;-145.18;100.00;60484.78;5075035;28;20016;-70
2021/10/31 02:40:14;;;;;;;30.80;12.43;;;;;;;-145.18;100.00;60484.78;5077656;28;20077;-70
2021/10/31 02:42:40;;;;;;;29.87;10.80;;;;;;;-145.18;100.00;60484.78;5071309;28;20039;-70
2021/10/31 02:45:07;;;;;;;28.03;11.60;;;;;;;-145.18;100.00;60484.78;5068626;28;20213;-70
2021/10/31 02:47:39;;;;;;;25.77;10.93;;;;;;;-145.18;100.00;60484.78;5074540;28;20504;-70
2021/10/31 02:50:14;;;;;;;27.65;11.38;;;;;;;-145.18;100.00;60484.78;5077785;28;20081;-70
2021/10/31 02:53:06;;;;;;;24.10;9.97;;;;;;;-145.18;100.00;60484.78;5079955;28;20063;-70
2021/10/31 02:55:54;;;;;;;20.50;9.38;;;;;;;-145.18;100.00;60484.78;5077437;28;20028;-70
2021/10/31 02:58:43;;;;;;;29.87;11.43;;;;;;;-145.18;100.00;60484.78;5067273;28;20412;-70
2021/10/31 03:01:09;;;;;;;35.27;11.67;;;;;;;-145.18;100.00;60484.78;5076195;28;20324;-70
2021/10/31 03:03:35;;;;;;;26.57;11.23;;;;;;;-145.18;100.00;60484.78;5070561;28;20123;-70
2021/10/31 03:06:04;;;;;;;29.47;11.30;;;;;;;-145.18;100.00;60484.78;5070312;28;20256;-70
2021/10/31 03:08:30;;;;;;;27.77;11.73;;;;;;;-145.18;100.00;60484.78;5061455;28;20438;-70
2021/10/31 03:10:58;;;;;;;29.77;11.47;;;;;;;-145.18;100.00;60484.78;5072027;28;20028;-70
2021/10/31 03:13:25;;;;;;;27.70;11.43;;;;;;;-145.18;100.00;60484.78;5071712;28;20076;-70
2021/10/31 03:15:51;;;;;;;29.63;11.17;;;;;;;-145.18;100.00;60484.78;5074321;28;20315;-72
2021/10/31 03:18:17;;;;;;;29.97;11.83;;;;;;;-145.18;100.00;60484.78;5079050;28;20571;-70
2021/10/31 03:20:43;;;;;;;32.13;11.90;;;;;;;-145.18;100.00;60484.78;5074380;28;20052;-72
2021/10/31 03:23:09;;;;;;;31.60;12.17;;;;;;;-145.18;100.00;60484.78;5075059;28;20242;-72
2021/10/31 03:25:34;;;;;;;32.43;11.97;;;;;;;-145.18;100.00;60484.78;5072406;28;20067;-70
2021/10/31 03:28:00;;;;;;;34.77;11.07;;;;;;;-145.18;100.00;60484.78;5071974;28;20028;-70
2021/10/31 03:30:25;;;;;;;39.40;11.93;;;;;;;-145.18;100.00;60484.78;5078273;28;20023;-70
2021/10/31 03:32:51;;;;;;;34.57;11.77;;;;;;;-145.18;100.00;60484.78;5076902;28;20024;-70
2021/10/31 03:35:17;;;;;;;40.93;13.47;;;;;;;-145.18;100.00;60484.78;5074950;28;20143;-70
2021/10/31 03:37:43;;;;;;;35.57;11.47;;;;;;;-145.18;100.00;60484.78;5073246;28;20024;-70
2021/10/31 03:40:09;;;;;;;38.27;13.10;;;;;;;-145.18;100.00;60484.78;5077911;28;20672;-70
2021/10/31 03:42:35;;;;;;;35.73;12.60;;;;;;;-145.18;100.00;60484.78;5069386;28;20025;-70
2021/10/31 03:45:01;;;;;;;39.57;12.20;;;;;;;-145.18;100.00;60484.78;5072950;28;20035;-70
2021/10/31 03:47:28;;;;;;;37.83;13.53;;;;;;;-145.18;100.00;60484.78;5073328;28;20380;-70
2021/10/31 03:49:54;;;;;;;39.50;11.50;;;;;;;-145.18;100.00;60484.78;5071871;28;20035;-70
2021/10/31 03:52:19;;;;;;;40.00;13.00;;;;;;;-145.18;100.00;60484.78;5074690;28;20490;-70
2021/10/31 03:54:45;;;;;;;42.80;12.43;;;;;;;-145.18;100.00;60484.78;5070046;28;20036;-70
2021/10/31 03:57:11;;;;;;;41.13;12.77;;;;;;;-145.18;100.00;60484.78;5074179;28;20631;-70
2021/10/31 03:59:36;;;;;;;48.10;12.70;;;;;;;-145.18;100.00;60484.78;5070847;28;20050;-70
2021/10/31 04:02:03;;;;;;;37.10;12.53;;;;;;;-145.18;100.00;60484.78;5071980;28;20029;-70
2021/10/31 04:04:29;;;;;;;38.90;11.80;;;;;;;-145.18;100.00;60484.78;5073236;28;20047;-70
2021/10/31 04:06:55;;;;;;;37.67;12.03;;;;;;;-145.18;100.00;60484.78;5079189;28;20039;-70
2021/10/31 04:09:20;;;;;;;36.97;11.43;;;;;;;-145.18;100.00;60484.78;5067620;28;20396;-70
2021/10/31 04:11:46;;;;;;;34.57;12.20;;;;;;;-145.18;100.00;60484.78;5072536;28;20332;-70
2021/10/31 04:14:11;;;;;;;31.63;11.60;;;;;;;-145.18;100.00;60484.78;5074616;28;20603;-70
2021/10/31 04:16:37;;;;;;;34.70;12.77;;;;;;;-145.18;100.00;60484.78;5075456;28;20015;-70
2021/10/31 04:19:02;;;;;;;31.70;12.07;;;;;;;-145.18;100.00;60484.78;5074393;28;20028;-70
2021/10/31 04:21:28;;;;;;;33.33;11.27;;;;;;;-145.18;100.00;60484.78;5070920;28;20610;-70
2021/10/31 04:23:53;;;;;;;34.90;11.40;;;;;;;-145.18;100.00;60484.78;5078248;28;20062;-70
2021/10/31 04:26:19;;;;;;;34.77;11.33;;;;;;;-145.18;100.00;60484.78;5068350;28;20277;-70
2021/10/31 04:28:44;;;;;;;32.73;11.73;;;;;;;-145.18;100.00;60484.78;5072818;28;20543;-70
2021/10/31 04:31:10;;;;;;;38.37;11.40;;;;;;;-145.18;100.00;60484.78;5077412;28;20278;-70
2021/10/31 04:33:36;;;;;;;33.03;11.53;;;;;;;-145.18;100.00;60484.78;5066732;28;20451;-70
2021/10/31 04:36:03;;;;;;;32.40;11.13;;;;;;;-145.18;100.00;60484.78;5075155;28;20093;-70
2021/10/31 04:38:31;;;;;;;34.23;11.07;;;;;;;-145.18;100.00;60484.78;5073847;28;20267;-70
2021/10/31 04:40:57;;;;;;;35.77;12.57;;;;;;;-145.18;100.00;60484.78;5071302;28;20035;-70
2021/10/31 04:43:24;;;;;;;31.67;10.87;;;;;;;-145.18;100.00;60484.78;5070582;28;20044;-70
2021/10/31 04:45:50;;;;;;;28.77;11.63;;;;;;;-145.18;100.00;60484.78;5073459;28;20032;-70
2021/10/31 04:48:15;;;;;;;28.73;10.80;;;;;;;-145.18;100.00;60484.78;5071453;28;20541;-70
2021/10/31 04:50:42;;;;;;;30.70;11.97;;;;;;;-145.18;100.00;60484.78;5065195;28;20033;-70
2021/10/31 04:53:08;;;;;;;29.57;10.70;;;;;;;-145.18;100.00;60484.78;5066790;28;20497;-70
2021/10/31 04:55:38;;;;;;;28.37;10.60;;;;;;;-145.18;100.00;60484.78;5068740;28;20098;-70
2021/10/31 04:58:04;;;;;;;26.73;10.97;;;;;;;-145.18;100.00;60484.78;5070224;28;20052;-70
2021/10/31 05:00:30;;;;;;;26.10;9.93;;;;;;;-145.18;100.00;60484.78;5063738;28;20626;-70
2021/10/31 05:02:56;;;;;;;25.83;10.00;;;;;;;-145.18;100.00;60484.78;5067845;28;20031;-70
2021/10/31 05:05:22;;;;;;;28.63;10.50;;;;;;;-145.18;100.00;60484.78;5066847;28;20369;-70
2021/10/31 05:07:48;;;;;;;24.27;9.57;;;;;;;-145.18;100.00;60484.78;5073095;28;20059;-70
2021/10/31 05:10:17;;;;;;;26.90;10.60;;;;;;;-145.18;100.00;60484.78;5070649;28;20063;-70
2021/10/31 05:12:44;;;;;;;26.63;10.43;;;;;;;-145.18;100.00;60484.78;5075858;28;20030;-71
2021/10/31 05:15:10;;;;;;;30.47;10.57;;;;;;;-145.18;100.00;60484.78;5074842;28;20595;-72
2021/10/31 05:17:36;;;;;;;30.27;10.63;;;;;;;-145.18;100.00;60484.78;5077816;28;20093;-71
2021/10/31 05:20:05;;;;;;;27.00;10.63;;;;;;;-145.18;100.00;60484.78;5069371;28;20034;-71
2021/10/31 05:22:31;;;;;;;26.23;10.30;;;;;;;-145.18;100.00;60484.78;5074984;28;20062;-71
2021/10/31 05:24:56;;;;;;;27.87;10.90;;;;;;;-145.18;100.00;60484.78;5073069;28;20288;-70
2021/10/31 05:27:25;;;;;;;31.17;11.23;;;;;;;-145.18;100.00;60484.78;5074039;28;20036;-71
2021/10/31 05:29:51;;;;;;;31.37;11.50;;;;;;;-145.18;100.00;60484.78;5068031;28;20055;-71
2021/10/31 05:32:16;;;;;;;36.97;12.27;;;;;;;-145.18;100.00;60484.78;5060350;28;20321;-71
2021/10/31 05:34:42;;;;;;;38.47;12.60;;;;;;;-145.18;100.00;60484.78;5073451;28;20044;-71
2021/10/31 05:37:07;;;;;;;32.07;11.30;;;;;;;-145.18;100.00;60484.78;5069253;28;20037;-71
2021/10/31 05:39:33;;;;;;;41.73;12.37;;;;;;;-145.18;100.00;60484.78;5075500;28;20480;-71
2021/10/31 05:41:58;;;;;;;39.43;11.30;;;;;;;-145.18;100.00;60484.78;5064240;28;20109;-71
2021/10/31 05:44:24;;;;;;;44.20;11.63;;;;;;;-145.18;100.00;60484.78;5070465;28;20169;-71
2021/10/31 05:46:50;;;;;;;43.27;11.90;;;;;;;-145.18;100.00;60484.78;5072210;28;20052;-71
2021/10/31 05:49:16;;;;;;;47.80;12.80;;;;;;;-145.18;100.00;60484.78;5068045;28;20077;-71
2021/10/31 05:51:41;;;;;;;51.57;12.73;;;;;;;-145.18;100.00;60484.78;5067543;28;20412;-71
2021/10/31 05:54:08;;;;;;;46.77;12.77;;;;;;;-145.18;100.00;60484.78;5071573;28;20031;-71
2021/10/31 05:56:34;;;;;;;54.37;13.43;;;;;;;-145.18;100.00;60484.78;5075269;28;20033;-71
2021/10/31 05:58:59;;;;;;;59.17;13.23;;;;;;;-145.18;100.00;60484.78;5067321;28;20491;-71
2021/10/31 06:01:25;;;;;;;66.30;13.80;;;;;;;-145.18;100.00;60484.78;5070369;28;20480;-70
2021/10/31 06:03:51;;;;;;;65.93;14.57;;;;;;;-145.18;100.00;60484.78;5065130;28;20058;-70
2021/10/31 06:06:22;;;;;;;68.00;14.60;;;;;;;-145.18;100.00;60484.78;5072863;28;20295;-71
2021/10/31 06:08:47;;;;;;;71.50;15.43;;;;;;;-145.18;100.00;60484.78;5077638;28;20660;-71
2021/10/31 06:11:13;;;;;;;69.17;15.13;;;;;;;-145.18;100.00;60484.78;5068924;28;20131;-72
2021/10/31 06:13:39;;;;;;;73.60;15.03;;;;;;;-145.18;100.00;60484.78;5070559;28;20163;-71
2021/10/31 06:16:07;;;;;;;76.67;15.50;;;;;;;-145.18;100.00;60484.78;5074395;28;20046;-71
2021/10/31 06:18:32;;;;;;;76.77;14.63;;;;;;;-145.18;100.00;60484.78;5071126;28;20341;-71
2021/10/31 06:20:58;;;;;;;81.27;15.53;;;;;;;-145.18;100.00;60484.78;5074008;28;20032;-72
2021/10/31 06:23:24;;;;;;;85.03;15.10;;;;;;;-145.18;100.00;60484.78;5069642;28;20028;-71
2021/10/31 06:25:50;;;;;;;82.07;15.63;;;;;;;-145.18;100.00;60484.78;5074992;28;20267;-72
2021/10/31 06:28:16;;;;;;;94.03;16.33;;;;;;;-145.18;100.00;60484.78;5070569;28;20088;-72
2021/10/31 06:30:44;;;;;;;90.43;16.33;;;;;;;-145.18;100.00;60484.78;5070404;28;20028;-70
2021/10/31 06:33:10;;;;;;;94.13;16.90;;;;;;;-145.18;100.00;60484.78;5074010;28;20058;-71
2021/10/31 06:35:35;;;;;;;79.70;15.73;;;;;;;-145.18;100.00;60484.78;5066522;28;20028;-68
2021/10/31 06:38:01;;;;;;;83.90;15.10;;;;;;;-145.18;100.00;60484.78;5068782;28;20098;-69
2021/10/31 06:40:28;;;;;;;95.97;15.97;;;;;;;-145.18;100.00;60484.78;5069858;28;20039;-69
2021/10/31 06:42:53;;;;;;;85.97;16.17;;;;;;;-145.18;100.00;60484.78;5070380;28;20059;-69
2021/10/31 06:45:20;;;;;;;97.80;16.93;;;;;;;-145.18;100.00;60484.78;5073790;28;20051;-69
2021/10/31 06:47:46;;;;;;;100.80;16.53;;;;;;;-145.18;100.00;60484.78;5074408;28;20175;-69
2021/10/31 06:50:12;;;;;;;97.83;16.80;;;;;;;-145.18;100.00;60484.78;5075642;28;20573;-69
2021/10/31 06:52:37;;;;;;;100.57;16.90;;;;;;;-145.18;100.00;60484.78;5077404;28;20024;-69
2021/10/31 06:55:05;;;;;;;87.83;15.70;;;;;;;-145.18;100.00;60484.78;5076623;28;20046;-69
2021/10/31 06:57:31;;;;;;;85.07;16.70;;;;;;;-145.18;100.00;60484.78;5078987;28;20084;-69
2021/10/31 06:59:56;;;;;;;85.53;15.93;;;;;;;-145.18;100.00;60484.78;5068784;28;20684;-72
2021/10/31 07:02:22;;;;;;;78.67;15.03;;;;;;;-145.18;100.00;60484.78;5073983;28;20036;-72
2021/10/31 07:04:47;;;;;;;71.43;15.40;;;;;;;-145.18;100.00;60484.78;5068977;28;20496;-72
2021/10/31 07:07:14;;;;;;;73.67;16.33;;;;;;;-145.18;100.00;60484.78;5079349;28;20158;-72
2021/10/31 07:09:39;;;;;;;70.40;14.90;;;;;;;-145.18;100.00;60484.78;5073590;28;20573;-72
2021/10/31 07:12:05;;;;;;;70.07;15.60;;;;;;;-145.18;100.00;60484.78;5071671;28;20106;-72
2021/10/31 07:14:31;;;;;;;64.60;15.07;;;;;;;-145.18;100.00;60484.78;5078876;28;20020;-72
2021/10/31 07:16:56;;;;;;;62.23;14.60;;;;;;;-145.18;100.00;60484.78;5073360;28;20031;-72
2021/10/31 07:19:22;;;;;;;61.10;13.47;;;;;;;-145.18;100.00;60484.78;5074007;28;20034;-70
2021/10/31 07:21:48;;;;;;;64.03;14.07;;;;;;;-145.18;100.00;60484.78;5072270;28;20418;-71
2021/10/31 07:24:13;;;;;;;57.07;14.50;;;;;;;-145.18;100.00;60484.78;5074363;28;20514;-71
2021/10/31 07:26:39;;;;;;;58.07;14.77;;;;;;;-145.18;100.00;60484.78;5076205;28;20415;-71
2021/10/31 07:29:08;;;;;;;62.23;15.10;;;;;;;-145.18;100.00;60484.78;5067693;28;20093;-71
2021/10/31 07:31:39;;;;;;;49.17;13.53;;;;;;;-145.18;100.00;60484.78;5069066;28;20031;-71
2021/10/31 07:34:08;;;;;;;57.83;14.40;;;;;;;-145.18;100.00;60484.78;5068514;28;20059;-71
2021/10/31 07:36:34;;;;;;;52.00;14.30;;;;;;;-145.18;100.00;60484.78;5065331;28;20380;-71
2021/10/31 07:38:59;;;;;;;47.17;14.53;;;;;;;-145.18;100.00;60484.78;5075241;28;20039;-71
2021/10/31 07:41:25;;;;;;;54.33;13.97;;;;;;;-145.18;100.00;60484.78;5071797;28;20603;-71
2021/10/31 07:43:53;;;;;;;56.20;15.53;;;;;;;-145.18;100.00;60484.78;5071300;28;20113;-71
2021/10/31 07:46:19;;;;;;;49.10;14.83;;;;;;;-145.18;100.00;60484.78;5078565;28;20028;-71
2021/10/31 07:48:45;;;;;;;47.73;13.83;;;;;;;-145.18;100.00;60484.78;5079483;28;20028;-71
2021/10/31 07:51:10;;;;;;;56.90;16.17;;;;;;;-145.18;100.00;60484.78;5069595;28;20036;-71
2021/10/31 07:53:41;;;;;;;55.37;13.70;;;;;;;-145.18;100.00;60484.78;5074803;28;20085;-71
2021/10/31 07:56:08;;;;;;;51.03;15.53;;;;;;;-145.18;100.00;60484.78;5070758;28;20469;-71
2021/10/31 07:58:33;;;;;;;50.97;15.10;;;;;;;-145.18;100.00;60484.78;5072310;28;20056;-71
2021/10/31 08:00:59;;;;;;;43.80;14.13;;;;;;;-145.18;100.00;60484.78;5073042;28;20285;-71
2021/10/31 08:03:24;;;;;;;43.83;15.17;;;;;;;-145.18;100.00;60484.78;5071569;28;20563;-71
2021/10/31 08:05:50;;;;;;;41.20;14.30;;;;;;;-145.18;100.00;60484.78;5062300;28;20066;-71
2021/10/31 08:08:21;;;;;;;34.23;12.33;;;;;;;-145.18;100.00;60484.78;5078644;28;20445;-71
2021/10/31 08:10:47;;;;;;;32.03;12.43;;;;;;;-145.18;100.00;60484.78;5074712;28;20495;-71
2021/10/31 08:13:23;;;;;;;28.47;11.53;;;;;;;-145.18;100.00;60484.78;5068021;28;20069;-71
2021/10/31 08:15:49;;;;;;;29.13;11.03;;;;;;;-145.18;100.00;60484.78;5068299;28;20085;-70
2021/10/31 08:18:15;;;;;;;30.00;12.20;;;;;;;-145.18;100.00;60484.78;5071254;28;20029;-70
2021/10/31 08:20:41;;;;;;;31.67;12.30;;;;;;;-145.18;100.00;60484.78;5073091;28;20259;-70
2021/10/31 08:23:08;;;;;;;26.93;10.77;;;;;;;-145.18;100.00;60484.78;5071953;28;20126;-70
2021/10/31 08:25:33;;;;;;;32.00;12.80;;;;;;;-145.18;100.00;60484.78;5066116;28;20028;-72
2021/10/31 08:27:59;;;;;;;30.07;11.87;;;;;;;-145.18;100.00;60484.78;5064037;28;20092;-72
2021/10/31 08:30:30;;;;;;;28.57;11.63;;;;;;;-145.18;100.00;60484.78;5075972;28;20024;-72
2021/10/31 08:32:59;;;;;;;28.60;12.10;;;;;;;-145.18;100.00;60484.78;5077438;28;20032;-72
2021/10/31 08:35:24;;;;;;;28.37;11.60;;;;;;;-145.18;100.00;60484.78;5068253;28;20039;-72
2021/10/31 08:37:50;;;;;;;30.07;12.33;;;;;;;-145.18;100.00;60484.78;5067319;28;20016;-72
2021/10/31 08:40:16;;;;;;;28.07;11.63;;;;;;;-145.18;100.00;60484.78;5074930;28;20068;-70
2021/10/31 08:42:41;;;;;;;28.20;11.77;;;;;;;-145.18;100.00;60484.78;5073778;28;20103;-70
2021/10/31 08:45:09;;;;;;;30.13;12.63;;;;;;;-145.18;100.00;60484.78;5074732;28;20032;-70
2021/10/31 08:47:35;;;;;;;25.77;11.20;;;;;;;-145.18;100.00;60484.78;5069430;28;20438;-70
2021/10/31 08:50:01;;;;;;;31.07;10.50;;;;;;;-145.18;100.00;60484.78;5067395;28;20021;-70
2021/10/31 08:52:27;;;;;;;29.30;10.63;;;;;;;-145.18;100.00;60484.78;5068591;28;20019;-70
2021/10/31 08:54:52;;;;;;;26.50;11.07;;;;;;;-145.18;100.00;60484.78;5071236;28;20666;-70
2021/10/31 08:57:18;;;;;;;25.30;10.57;;;;;;;-145.18;100.00;60484.78;5074707;28;20016;-72
2021/10/31 08:59:44;;;;;;;26.07;10.30;;;;;;;-145.18;100.00;60484.78;5075816;28;20478;-70
2021/10/31 09:02:09;;;;;;;25.77;10.30;;;;;;;-145.18;100.00;60484.78;5059598;28;20100;-70
2021/10/31 09:04:39;;;;;;;23.10;10.47;;;;;;;-145.18;100.00;60484.78;5073787;28;20135;-70
2021/10/31 09:07:05;;;;;;;22.83;9.80;;;;;;;-145.18;100.00;60484.78;5075436;28;20024;-70
2021/10/31 09:09:30;;;;;;;23.33;9.17;;;;;;;-145.18;100.00;60484.78;5065858;28;20473;-70
2021/10/31 09:11:56;;;;;;;23.73;8.90;;;;;;;-145.18;100.00;60484.78;5067550;28;20035;-70
2021/10/31 09:14:22;;;;;;;21.20;9.40;;;;;;;-145.18;100.00;60484.78;5063096;28;20507;-70
2021/10/31 09:16:48;;;;;;;21.97;10.07;;;;;;;-145.18;100.00;60484.78;5059886;28;20052;-70
2021/10/31 09:19:15;;;;;;;18.13;8.30;;;;;;;-145.18;100.00;60484.78;5065753;28;20056;-70
2021/10/31 09:21:46;;;;;;;20.00;8.10;;;;;;;-145.18;100.00;60484.78;5068990;28;20023;-70
2021/10/31 09:24:11;;;;;;;20.53;7.60;;;;;;;-145.18;100.00;60484.78;5072182;28;20031;-70
2021/10/31 09:26:37;;;;;;;15.27;6.87;;;;;;;-145.18;100.00;60484.78;5068092;28;20020;-70
2021/10/31 09:29:04;;;;;;;17.47;7.80;;;;;;;-145.18;100.00;60484.78;5068608;28;20440;-70
2021/10/31 09:31:30;;;;;;;16.93;7.87;;;;;;;-145.18;100.00;60484.78;5076270;28;20032;-70
2021/10/31 09:33:56;;;;;;;14.83;7.60;;;;;;;-145.18;100.00;60484.78;5071299;28;20089;-70
2021/10/31 09:36:22;;;;;;;17.63;7.97;;;;;;;-145.18;100.00;60484.78;5066460;28;20139;-70
2021/10/31 09:38:52;;;;;;;18.20;7.53;;;;;;;-145.18;100.00;60484.78;5069173;28;20392;-70
2021/10/31 09:41:18;;;;;;;16.00;7.53;;;;;;;-145.18;100.00;60484.78;5061010;28;20230;-70
2021/10/31 09:43:59;;;;;;;13.87;6.80;;;;;;;-145.18;100.00;60484.78;5072397;28;20506;-70
2021/10/31 09:46:25;;;;;;;17.93;7.03;;;;;;;-145.18;100.00;60484.78;5070719;28;20020;-70
2021/10/31 09:48:51;;;;;;;14.27;7.00;;;;;;;-145.18;100.00;60484.78;5069945;28;20059;-70
2021/10/31 09:51:16;;;;;;;13.90;6.83;;;;;;;-145.18;100.00;60484.78;5063235;28;20473;-70
2021/10/31 09:53:44;;;;;;;16.10;6.93;;;;;;;-145.18;100.00;60484.78;5072499;28;20099;-70
2021/10/31 09:56:10;;;;;;;15.20;7.83;;;;;;;-145.18;100.00;60484.78;5074011;28;20386;-71
2021/10/31 09:58:38;;;;;;;14.80;6.57;;;;;;;-145.18;100.00;60484.78;5076971;28;20099;-71
2021/10/31 10:01:36;;;;;;;17.10;7.77;;;;;;;-145.18;100.00;60484.78;5069559;28;20033;-71
2021/10/31 10:04:02;;;;;;;14.57;7.27;;;;;;;-145.18;100.00;60484.78;5072700;28;20428;-70
2021/10/31 10:06:31;;;;;;;15.00;7.43;;;;;;;-145.18;100.00;60484.78;5062056;28;20031;-70
2021/10/31 10:09:09;;;;;;;16.03;7.37;;;;;;;-145.18;100.00;60484.78;5063155;28;20539;-70
2021/10/31 10:11:40;;;;;;;15.60;7.80;;;;;;;-145.18;100.00;60484.78;5065768;28;20104;-70
2021/10/31 10:14:35;;;;;;;13.93;6.78;;;;;;;-145.18;100.00;60484.78;5074836;28;20118;-70
2021/10/31 10:17:06;;;;;;;13.63;7.13;;;;;;;-145.18;100.00;60484.78;5038710;28;20089;-70
2021/10/31 10:19:34;;;;;;;13.83;6.53;;;;;;;-145.18;100.00;60484.78;5069953;28;20433;-70
2021/10/31 10:22:11;;;;;;;14.57;7.20;;;;;;;-145.18;100.00;60484.78;5075269;28;20674;-69
2021/10/31 10:24:58;;;;;;;12.33;6.17;;;;;;;-145.18;100.00;60484.78;5072886;28;20619;-70
2021/10/31 10:27:29;;;;;;;13.37;6.90;;;;;;;-145.18;100.00;60484.78;5070742;28;20021;-70
2021/10/31 10:29:56;;;;;;;11.47;5.87;;;;;;;-145.18;100.00;60484.78;5076010;28;20035;-71
2021/10/31 10:32:27;;;;;;;11.37;5.60;;;;;;;-145.18;100.00;60484.78;5071128;28;20211;-72
2021/10/31 10:34:55;;;;;;;13.20;5.87;;;;;;;-145.18;100.00;60484.78;5069948;28;20123;-70
2021/10/31 10:37:40;;;;;;;10.83;6.00;;;;;;;-145.18;100.00;60484.78;5077143;28;20047;-70
2021/10/31 10:40:17;;;;;;;9.80;5.43;;;;;;;-145.18;100.00;60484.78;5077948;28;20280;-70
2021/10/31 10:42:49;;;;;;;9.57;5.00;;;;;;;-145.18;100.00;60484.78;5076637;28;20114;-70
2021/10/31 10:45:21;;;;;;;11.53;5.80;;;;;;;-145.18;100.00;60484.78;5073314;28;20564;-70
2021/10/31 10:47:53;;;;;;;11.98;5.78;;;;;;;-145.18;100.00;60484.78;5072817;28;20670;-70
2021/10/31 10:50:27;;;;;;;12.35;5.47;;;;;;;-145.18;100.00;60484.78;5074310;28;20050;-70
2021/10/31 10:52:53;;;;;;;9.67;5.57;;;;;;;-145.18;100.00;60484.78;5069244;28;20189;-71
2021/10/31 10:55:21;;;;;;;9.97;5.73;;;;;;;-145.18;100.00;60484.78;5071043;28;20028;-70
2021/10/31 10:58:09;;;;;;;8.67;4.60;;;;;;;-145.18;100.00;60484.78;5071306;28;20028;-70
2021/10/31 11:00:40;;;;;;;9.90;5.00;;;;;;;-145.18;100.00;60484.78;5067382;28;20188;-70
2021/10/31 11:03:20;;;;;;;8.83;4.17;;;;;;;-145.18;100.00;60484.78;5066504;28;20028;-70
2021/10/31 11:05:51;;;;;;;11.03;5.73;;;;;;;-145.18;100.00;60484.78;5074650;28;20055;-71